createdAt,value
2022-11-22T00:01:31.669Z,7.27
2022-11-22T00:03:58.300Z,7.26
2022-11-22T00:06:24.890Z,7.25
2022-11-22T00:08:51.498Z,7.28
2022-11-22T00:11:18.111Z,7.29
2022-11-22T00:13:44.733Z,7.31
2022-11-22T00:16:11.257Z,7.32
2022-11-22T00:18:39.258Z,7.34
2022-11-22T00:21:07.362Z,7.34
2022-11-22T00:23:34.112Z,7.35
2022-11-22T00:26:00.772Z,7.36
2022-11-22T00:28:27.445Z,7.36
2022-11-22T00:30:54.060Z,7.37
2022-11-22T00:33:20.748Z,7.38
2022-11-22T00:35:48.672Z,7.39
2022-11-22T00:38:15.395Z,7.39
2022-11-22T00:40:43.035Z,7.38
2022-11-22T00:43:09.731Z,7.35
2022-11-22T00:45:36.288Z,7.30
2022-11-22T00:48:03.033Z,7.28
2022-11-22T00:50:29.575Z,7.24
2022-11-22T00:52:57.584Z,7.19
2022-11-22T00:55:24.140Z,7.11
2022-11-22T00:57:50.825Z,7.09
2022-11-22T01:00:17.891Z,7.07
2022-11-22T01:02:44.587Z,7.02
2022-11-22T01:05:11.251Z,7.02
2022-11-22T01:07:38.078Z,6.97
2022-11-22T01:10:07.058Z,6.98
2022-11-22T01:12:33.696Z,6.96
2022-11-22T01:15:00.343Z,6.90
2022-11-22T01:17:26.960Z,6.91
2022-11-22T01:19:53.560Z,6.89
2022-11-22T01:22:20.832Z,6.87
2022-11-22T01:24:47.392Z,6.84
2022-11-22T01:27:15.417Z,6.80
2022-11-22T01:29:42.002Z,6.80
2022-11-22T01:32:08.693Z,6.76
2022-11-22T01:34:35.273Z,6.75
2022-11-22T01:37:01.910Z,6.73
2022-11-22T01:39:28.833Z,6.69
2022-11-22T01:41:55.722Z,6.68
2022-11-22T01:44:25.563Z,6.66
2022-11-22T01:46:55.578Z,6.63
2022-11-22T01:49:28.222Z,6.59
2022-11-22T01:51:59.931Z,6.56
2022-11-22T01:54:31.482Z,6.55
2022-11-22T01:57:03.906Z,6.57
2022-11-22T01:59:33.991Z,6.52
2022-11-22T02:02:01.914Z,6.51
2022-11-22T02:04:31.116Z,6.47
2022-11-22T02:07:03.465Z,6.44
2022-11-22T02:09:32.618Z,6.41
2022-11-22T02:12:02.188Z,6.43
2022-11-22T02:14:31.110Z,6.44
2022-11-22T02:16:59.048Z,6.43
2022-11-22T02:19:34.173Z,6.43
2022-11-22T02:22:06.524Z,6.46
2022-11-22T02:24:40.466Z,6.49
2022-11-22T02:27:08.517Z,6.52
2022-11-22T02:29:36.252Z,6.53
2022-11-22T02:32:02.935Z,6.51
2022-11-22T02:34:29.555Z,6.48
2022-11-22T02:36:56.133Z,6.47
2022-11-22T02:39:28.758Z,6.45
2022-11-22T02:41:56.788Z,6.43
2022-11-22T02:44:24.943Z,6.40
2022-11-22T02:46:54.190Z,6.41
2022-11-22T02:49:22.580Z,6.41
2022-11-22T02:51:49.733Z,6.36
2022-11-22T02:54:16.669Z,6.32
2022-11-22T02:56:43.261Z,6.33
2022-11-22T02:59:10.419Z,6.29
2022-11-22T03:01:38.529Z,6.25
2022-11-22T03:04:05.645Z,6.25
2022-11-22T03:06:32.388Z,6.22
2022-11-22T03:08:58.982Z,6.18
2022-11-22T03:11:25.587Z,6.20
2022-11-22T03:13:52.271Z,6.19
2022-11-22T03:16:18.896Z,6.18
2022-11-22T03:18:46.960Z,6.12
2022-11-22T03:21:13.557Z,6.07
2022-11-22T03:23:40.136Z,6.08
2022-11-22T03:26:07.697Z,6.02
2022-11-22T03:28:34.419Z,6.04
2022-11-22T03:31:01.038Z,6.02
2022-11-22T03:33:27.608Z,6.00
2022-11-22T03:35:57.134Z,5.97
2022-11-22T03:38:23.819Z,6.01
2022-11-22T03:40:50.507Z,5.94
2022-11-22T03:43:17.264Z,5.94
2022-11-22T03:45:45.879Z,5.90
2022-11-22T03:48:12.800Z,5.89
2022-11-22T03:50:39.904Z,5.89
2022-11-22T03:53:08.159Z,5.88
2022-11-22T03:55:34.975Z,5.87
2022-11-22T03:58:01.777Z,5.86
2022-11-22T04:00:28.565Z,5.88
2022-11-22T04:02:55.283Z,5.89
2022-11-22T04:05:21.958Z,5.88
2022-11-22T04:07:48.805Z,5.83
2022-11-22T04:10:22.121Z,5.83
2022-11-22T04:12:49.174Z,5.79
2022-11-22T04:15:16.139Z,5.74
2022-11-22T04:17:44.886Z,5.72
2022-11-22T04:20:15.329Z,5.69
2022-11-22T04:22:41.966Z,5.65
2022-11-22T04:25:09.031Z,5.62
2022-11-22T04:27:36.939Z,5.62
2022-11-22T04:30:04.127Z,5.57
2022-11-22T04:32:30.743Z,5.57
2022-11-22T04:34:57.401Z,5.59
2022-11-22T04:37:24.057Z,5.59
2022-11-22T04:39:50.588Z,5.54
2022-11-22T04:42:17.195Z,5.57
2022-11-22T04:44:46.937Z,5.53
2022-11-22T04:47:15.401Z,5.50
2022-11-22T04:49:42.203Z,5.52
2022-11-22T04:52:09.258Z,5.54
2022-11-22T04:54:35.944Z,5.50
2022-11-22T04:57:02.718Z,5.49
2022-11-22T04:59:29.517Z,5.47
2022-11-22T05:01:57.776Z,5.48
2022-11-22T05:04:24.399Z,5.43
2022-11-22T05:06:51.052Z,5.43
2022-11-22T05:09:17.798Z,5.40
2022-11-22T05:11:44.477Z,5.38
2022-11-22T05:14:11.179Z,5.37
2022-11-22T05:16:37.798Z,5.38
2022-11-22T05:19:05.878Z,5.33
2022-11-22T05:21:33.293Z,5.31
2022-11-22T05:24:00.098Z,5.32
2022-11-22T05:26:28.889Z,5.32
2022-11-22T05:28:55.987Z,5.31
2022-11-22T05:31:24.048Z,5.30
2022-11-22T05:33:52.116Z,5.30
2022-11-22T05:36:20.580Z,5.27
2022-11-22T05:38:47.800Z,5.26
2022-11-22T05:41:16.693Z,5.25
2022-11-22T05:43:43.465Z,5.24
2022-11-22T05:46:12.278Z,5.21
2022-11-22T05:48:40.936Z,5.21
2022-11-22T05:51:09.437Z,5.17
2022-11-22T05:53:38.563Z,5.19
2022-11-22T05:56:06.615Z,5.18
2022-11-22T05:58:33.404Z,5.15
2022-11-22T06:01:04.980Z,5.14
2022-11-22T06:03:32.224Z,5.11
2022-11-22T06:05:58.914Z,5.11
2022-11-22T06:08:25.774Z,5.15
2022-11-22T06:10:53.672Z,5.14
2022-11-22T06:13:20.334Z,5.04
2022-11-22T06:15:47.001Z,5.06
2022-11-22T06:18:13.690Z,5.02
2022-11-22T06:20:40.424Z,4.97
2022-11-22T06:23:07.069Z,4.97
2022-11-22T06:25:33.720Z,4.95
2022-11-22T06:28:01.719Z,4.92
2022-11-22T06:30:28.278Z,4.90
2022-11-22T06:32:54.923Z,4.90
2022-11-22T06:35:21.629Z,4.94
2022-11-22T06:37:49.014Z,4.94
2022-11-22T06:40:15.978Z,4.91
2022-11-22T06:42:42.635Z,4.92
2022-11-22T06:45:11.881Z,4.89
2022-11-22T06:47:38.547Z,4.87
2022-11-22T06:50:05.770Z,4.88
2022-11-22T06:52:32.379Z,4.88
2022-11-22T06:54:59.080Z,4.87
2022-11-22T06:57:25.643Z,4.89
2022-11-22T06:59:52.241Z,4.83
2022-11-22T07:02:20.320Z,4.83
2022-11-22T07:05:17.273Z,4.77
2022-11-22T07:07:33.732Z,4.80
2022-11-22T07:10:00.429Z,4.97
2022-11-22T07:12:27.052Z,4.88
2022-11-22T07:14:53.720Z,4.82
2022-11-22T07:17:21.623Z,4.80
2022-11-22T07:19:48.213Z,4.79
2022-11-22T07:22:14.896Z,4.77
2022-11-22T07:24:41.600Z,4.74
2022-11-22T07:27:08.255Z,4.79
2022-11-22T07:29:34.980Z,4.77
2022-11-22T07:32:01.586Z,4.80
2022-11-22T07:34:29.570Z,4.84
2022-11-22T07:37:00.547Z,4.91
2022-11-22T07:39:29.351Z,4.99
2022-11-22T07:41:56.155Z,5.09
2022-11-22T07:44:22.785Z,5.22
2022-11-22T07:46:49.321Z,5.37
2022-11-22T07:49:16.055Z,5.46
2022-11-22T07:51:44.030Z,5.58
2022-11-22T07:54:11.875Z,5.72
2022-11-22T07:56:38.480Z,5.81
2022-11-22T07:59:05.095Z,5.88
2022-11-22T08:01:31.658Z,5.97
2022-11-22T08:03:58.247Z,6.08
2022-11-22T08:06:24.770Z,6.10
2022-11-22T08:08:57.054Z,6.19
2022-11-22T08:11:27.061Z,6.26
2022-11-22T08:13:53.721Z,6.26
2022-11-22T08:16:20.313Z,6.25
2022-11-22T08:18:48.695Z,6.25
2022-11-22T08:21:17.140Z,6.28
2022-11-22T08:23:44.531Z,6.31
2022-11-22T08:26:14.986Z,6.35
2022-11-22T08:28:42.747Z,6.42
2022-11-22T08:31:11.432Z,6.48
2022-11-22T08:33:38.528Z,6.55
2022-11-22T08:36:06.038Z,6.57
2022-11-22T08:38:32.941Z,6.55
2022-11-22T08:40:59.514Z,6.57
2022-11-22T08:43:27.521Z,6.56
2022-11-22T08:45:55.530Z,6.57
2022-11-22T08:48:22.793Z,6.61
2022-11-22T08:50:50.966Z,6.65
2022-11-22T08:53:17.603Z,6.70
2022-11-22T08:55:44.253Z,6.75
2022-11-22T08:58:10.849Z,6.81
2022-11-22T09:00:38.774Z,6.87
2022-11-22T09:03:05.327Z,6.99
2022-11-22T09:05:33.550Z,7.08
2022-11-22T09:10:47.078Z,7.19
2022-11-22T09:13:13.628Z,7.14
2022-11-22T09:15:41.692Z,7.13
2022-11-22T09:18:08.568Z,7.12
2022-11-22T09:20:35.255Z,7.12
2022-11-22T09:23:02.681Z,7.17
2022-11-22T09:25:29.357Z,7.23
2022-11-22T09:27:59.495Z,7.30
2022-11-22T09:30:26.186Z,7.36
2022-11-22T09:32:54.102Z,7.40
2022-11-22T09:35:20.689Z,7.39
2022-11-22T09:37:47.551Z,7.42
2022-11-22T09:40:15.431Z,7.40
2022-11-22T09:42:59.679Z,7.46
2022-11-22T09:45:42.061Z,7.51
2022-11-22T09:48:37.718Z,7.67
2022-11-22T09:51:09.155Z,7.83
2022-11-22T09:53:41.187Z,7.97
2022-11-22T09:56:12.251Z,8.09
2022-11-22T09:58:42.394Z,8.15
2022-11-22T10:01:13.237Z,8.13
2022-11-22T10:03:48.768Z,8.12
2022-11-22T10:06:22.846Z,8.06
2022-11-22T10:09:00.879Z,8.02
2022-11-22T10:11:36.665Z,8.07
2022-11-22T10:14:12.096Z,8.30
2022-11-22T10:16:43.087Z,8.45
2022-11-22T10:19:16.435Z,8.62
2022-11-22T10:21:43.932Z,8.92
2022-11-22T10:24:15.726Z,9.12
2022-11-22T10:26:42.709Z,9.26
2022-11-22T10:29:22.332Z,9.30
2022-11-22T10:31:56.434Z,9.12
2022-11-22T10:34:37.789Z,9.05
2022-11-22T10:37:13.920Z,8.92
2022-11-22T10:40:02.681Z,8.87
2022-11-22T10:42:49.766Z,8.81
2022-11-22T10:45:24.194Z,8.81
2022-11-22T10:48:02.807Z,8.80
2022-11-22T10:50:42.798Z,8.82
2022-11-22T10:53:24.500Z,8.81
2022-11-22T10:56:00.040Z,8.89
2022-11-22T10:58:35.538Z,8.84
2022-11-22T11:01:07.350Z,8.80
2022-11-22T11:03:37.369Z,8.76
2022-11-22T11:06:26.623Z,8.74
2022-11-22T11:10:02.771Z,8.71
2022-11-22T11:11:53.616Z,8.68
2022-11-22T11:14:27.860Z,8.65
2022-11-22T11:16:54.835Z,8.60
2022-11-22T11:19:24.432Z,8.60
2022-11-22T11:21:58.998Z,8.67
2022-11-22T11:24:29.300Z,8.69
2022-11-22T11:26:59.055Z,8.69
2022-11-22T11:29:38.139Z,8.72
2022-11-22T11:32:08.110Z,8.67
2022-11-22T11:34:36.422Z,8.64
2022-11-22T11:37:05.646Z,8.63
2022-11-22T11:39:34.360Z,8.59
2022-11-22T11:42:01.554Z,8.58
2022-11-22T11:44:30.523Z,8.58
2022-11-22T11:46:57.984Z,8.58
2022-11-22T11:49:26.345Z,8.57
2022-11-22T11:51:55.724Z,8.67
2022-11-22T11:54:26.591Z,8.70
2022-11-22T11:56:56.630Z,8.70
2022-11-22T11:59:25.697Z,8.69
2022-11-22T12:01:57.047Z,8.68
2022-11-22T12:04:26.432Z,8.69
2022-11-22T12:07:00.074Z,8.68
2022-11-22T12:09:34.671Z,8.67
2022-11-22T12:12:17.950Z,8.68
2022-11-22T12:15:10.220Z,8.66
2022-11-22T12:17:46.512Z,8.66
2022-11-22T12:20:19.941Z,8.65
2022-11-22T12:22:55.824Z,8.66
2022-11-22T12:25:33.563Z,8.65
2022-11-22T12:28:17.866Z,8.63
2022-11-22T12:30:46.515Z,8.63
2022-11-22T12:33:19.142Z,8.63
2022-11-22T12:35:45.796Z,8.68
2022-11-22T12:38:16.808Z,8.61
2022-11-22T12:40:49.219Z,8.63
2022-11-22T12:43:20.971Z,8.62
2022-11-22T12:45:51.738Z,8.64
2022-11-22T12:48:25.423Z,8.65
2022-11-22T12:50:54.872Z,8.66
2022-11-22T12:53:27.858Z,8.69
2022-11-22T12:56:00.983Z,8.71
2022-11-22T12:58:34.038Z,8.71
2022-11-22T13:01:09.217Z,8.72
2022-11-22T13:03:40.469Z,8.74
2022-11-22T13:06:10.212Z,8.75
2022-11-22T13:08:42.269Z,8.85
2022-11-22T13:11:16.702Z,8.94
2022-11-22T13:13:46.232Z,8.95
2022-11-22T13:16:13.653Z,8.96
2022-11-22T13:18:44.363Z,8.95
2022-11-22T13:21:19.513Z,8.93
2022-11-22T13:24:24.856Z,8.93
2022-11-22T13:27:05.519Z,8.91
2022-11-22T13:29:34.477Z,8.90
2022-11-22T13:32:07.548Z,8.88
2022-11-22T13:34:36.863Z,8.89
2022-11-22T13:37:09.538Z,8.91
2022-11-22T13:39:41.957Z,8.88
2022-11-22T13:42:15.248Z,8.87
2022-11-22T13:45:06.659Z,8.85
2022-11-22T13:47:41.922Z,8.81
2022-11-22T13:50:56.146Z,8.83
2022-11-22T13:53:26.532Z,8.83
2022-11-22T13:55:53.197Z,8.86
2022-11-22T13:58:50.803Z,8.89
2022-11-22T14:01:54.082Z,8.91
2022-11-22T14:04:29.570Z,8.93
2022-11-22T14:07:01.439Z,8.97
2022-11-22T14:09:39.981Z,8.99
2022-11-22T14:12:30.006Z,8.98
2022-11-22T14:15:29.182Z,9.00
2022-11-22T14:18:13.815Z,8.95
2022-11-22T14:20:54.274Z,8.93
2022-11-22T14:23:29.136Z,8.90
2022-11-22T14:26:09.061Z,8.89
2022-11-22T14:29:14.286Z,8.94
2022-11-22T14:31:41.009Z,8.96
2022-11-22T14:34:20.013Z,9.01
2022-11-22T14:37:26.610Z,9.02
2022-11-22T14:40:29.249Z,9.02
2022-11-22T14:43:02.033Z,8.97
2022-11-22T14:45:41.875Z,8.97
2022-11-22T14:48:16.876Z,8.95
2022-11-22T14:50:46.694Z,8.93
2022-11-22T14:53:26.815Z,8.90
2022-11-22T14:55:58.157Z,8.89
2022-11-22T14:58:29.156Z,8.82
2022-11-22T15:01:20.355Z,8.86
2022-11-22T15:09:11.231Z,8.86
2022-11-22T15:09:14.765Z,8.80
2022-11-22T15:10:30.903Z,8.78
2022-11-22T15:13:22.834Z,8.73
2022-11-22T15:58:45.939Z,7.95
2022-11-22T16:01:20.274Z,7.89
2022-11-22T16:03:50.947Z,7.89
2022-11-22T16:06:24.200Z,7.87
2022-11-22T16:08:53.121Z,7.87
2022-11-22T16:11:23.205Z,7.86
2022-11-22T16:13:49.801Z,7.86
2022-11-22T16:16:21.016Z,7.85
2022-11-22T16:18:47.767Z,7.85
2022-11-22T16:21:21.420Z,7.87
2022-11-22T16:24:07.047Z,7.87
2022-11-22T16:26:34.195Z,7.87
2022-11-22T16:29:17.988Z,7.89
2022-11-22T16:31:47.187Z,7.90
2022-11-22T16:34:15.271Z,7.91
2022-11-22T16:36:42.309Z,7.93
2022-11-22T16:39:09.377Z,7.95
2022-11-22T16:41:36.120Z,8.00
2022-11-22T16:44:11.142Z,8.06
2022-11-22T16:46:38.868Z,8.07
2022-11-22T16:49:16.556Z,8.09
2022-11-22T16:51:43.243Z,8.09
2022-11-22T16:54:13.923Z,8.12
2022-11-22T16:56:40.719Z,8.14
2022-11-22T16:59:12.445Z,8.17
2022-11-22T17:01:41.603Z,8.17
2022-11-22T17:04:20.723Z,8.20
2022-11-22T17:06:47.771Z,8.20
2022-11-22T17:09:14.398Z,8.22
2022-11-22T17:11:43.239Z,8.22
2022-11-22T17:14:13.833Z,8.23
2022-11-22T17:16:41.300Z,8.23
2022-11-22T17:19:24.159Z,8.24
2022-11-22T17:21:58.580Z,8.28
2022-11-22T17:24:25.167Z,8.28
2022-11-22T17:26:51.815Z,8.25
2022-11-22T17:29:48.915Z,8.26
2022-11-22T17:32:05.555Z,8.25
2022-11-22T17:34:32.475Z,8.24
2022-11-22T17:37:00.633Z,8.22
2022-11-22T17:39:27.165Z,8.21
2022-11-22T17:41:53.747Z,8.22
2022-11-22T17:44:20.314Z,8.22
2022-11-22T17:46:46.933Z,8.24
2022-11-22T17:49:15.995Z,8.31
2022-11-22T17:51:43.657Z,8.33
2022-11-22T17:54:11.542Z,8.27
2022-11-22T17:56:38.159Z,8.26
2022-11-22T17:59:04.929Z,8.23
2022-11-22T18:01:31.750Z,8.21
2022-11-22T18:03:58.337Z,8.19
2022-11-22T18:06:24.915Z,8.18
2022-11-22T18:08:51.603Z,8.12
2022-11-22T18:11:19.680Z,8.10
2022-11-22T18:13:46.243Z,8.12
2022-11-22T18:16:14.465Z,8.13
2022-11-22T18:18:56.273Z,8.13
2022-11-22T18:21:24.228Z,8.12
2022-11-22T18:23:50.819Z,8.12
2022-11-22T18:31:53.110Z,8.07
2022-11-22T18:34:19.972Z,8.06
2022-11-22T18:36:55.727Z,8.04
2022-11-22T18:39:24.141Z,8.06
2022-11-22T18:41:52.209Z,8.05
2022-11-22T18:44:18.932Z,8.06
2022-11-22T18:46:46.327Z,8.07
2022-11-22T18:49:12.900Z,8.06
2022-11-22T18:51:39.480Z,8.06
2022-11-22T18:54:06.387Z,8.06
2022-11-22T18:56:33.192Z,8.07
2022-11-22T18:59:01.122Z,8.11
2022-11-22T19:01:27.741Z,8.12
2022-11-22T19:03:54.377Z,8.17
2022-11-22T19:06:21.026Z,8.18
2022-11-22T19:08:48.004Z,8.20
2022-11-22T19:11:15.108Z,8.21
2022-11-22T19:13:43.148Z,8.23
2022-11-22T19:16:13.206Z,8.26
2022-11-22T19:18:42.922Z,8.27
2022-11-22T19:21:11.633Z,8.27
2022-11-22T19:23:38.740Z,8.30
2022-11-22T19:26:07.066Z,8.31
2022-11-22T19:28:34.024Z,8.34
2022-11-22T19:31:01.539Z,8.37
2022-11-22T19:33:29.571Z,8.40
2022-11-22T19:35:57.433Z,8.42
2022-11-22T19:38:24.428Z,8.46
2022-11-22T19:40:51.165Z,8.49
2022-11-22T19:43:17.740Z,8.52
2022-11-22T19:45:44.812Z,8.52
2022-11-22T19:48:13.694Z,8.48
2022-11-22T19:50:42.078Z,8.48
2022-11-22T19:53:09.157Z,8.52
2022-11-22T19:55:40.954Z,8.51
2022-11-22T19:58:10.548Z,8.53
2022-11-22T20:00:37.326Z,8.51
2022-11-22T20:03:03.992Z,8.51
2022-11-22T20:05:30.924Z,8.53
2022-11-22T20:07:59.080Z,8.54
2022-11-22T20:10:26.050Z,8.57
2022-11-22T20:12:52.704Z,8.56
2022-11-22T20:15:19.425Z,8.58
2022-11-22T20:17:45.946Z,8.62
2022-11-22T20:20:12.513Z,8.69
2022-11-22T20:22:39.064Z,8.73
2022-11-22T20:25:07.914Z,8.78
2022-11-22T20:27:34.594Z,8.80
2022-11-22T20:30:01.077Z,8.79
2022-11-22T20:32:27.815Z,8.82
2022-11-22T20:34:54.412Z,8.84
2022-11-22T20:37:21.225Z,8.84
2022-11-22T20:39:47.986Z,8.83
2022-11-22T20:42:45.930Z,8.86
2022-11-22T20:45:02.686Z,8.87
2022-11-22T20:47:30.947Z,8.93
2022-11-22T20:49:57.558Z,8.94
2022-11-22T20:52:24.107Z,8.93
2022-11-22T20:54:50.684Z,8.94
2022-11-22T20:57:18.609Z,8.97
2022-11-22T20:59:45.272Z,8.98
2022-11-22T21:02:11.827Z,9.01
2022-11-22T21:04:38.433Z,9.03
2022-11-22T21:07:05.109Z,9.03
2022-11-22T21:09:31.761Z,9.04
2022-11-22T21:11:58.329Z,9.08
2022-11-22T21:14:26.339Z,9.10
2022-11-22T21:16:53.016Z,9.10
2022-11-22T21:19:19.587Z,9.08
2022-11-22T21:21:46.272Z,9.05
2022-11-22T21:24:13.100Z,9.02
2022-11-22T21:26:39.715Z,9.00
2022-11-22T21:29:08.312Z,8.96
2022-11-22T21:31:39.384Z,8.94
2022-11-22T21:34:05.874Z,8.91
2022-11-22T21:36:32.562Z,8.90
2022-11-22T21:38:59.261Z,8.88
2022-11-22T21:41:41.660Z,8.87
2022-11-22T21:44:09.345Z,8.87
2022-11-22T21:46:35.916Z,8.88
2022-11-22T21:49:04.141Z,8.88
2022-11-22T21:51:30.927Z,8.88
2022-11-22T21:53:57.844Z,8.86
2022-11-22T21:56:24.655Z,8.83
2022-11-22T21:58:51.324Z,8.83
2022-11-22T22:01:17.891Z,8.80
2022-11-22T22:03:44.422Z,8.78
2022-11-22T22:06:12.376Z,8.77
2022-11-22T22:08:38.984Z,8.76
2022-11-22T22:11:06.043Z,8.74
2022-11-22T22:13:32.638Z,8.74
2022-11-22T22:16:01.313Z,8.74
2022-11-22T22:18:31.570Z,8.77
2022-11-22T22:20:59.793Z,8.76
2022-11-22T22:23:27.829Z,8.79
2022-11-22T22:25:59.314Z,8.79
2022-11-22T22:28:27.642Z,8.77
2022-11-22T22:31:02.363Z,8.78
2022-11-22T22:33:29.018Z,8.77
2022-11-22T22:35:55.632Z,8.75
2022-11-22T22:38:22.321Z,8.73
2022-11-22T22:40:54.016Z,8.73
2022-11-22T22:43:21.328Z,8.71
2022-11-22T22:45:47.868Z,8.70
2022-11-22T22:48:14.412Z,8.69
2022-11-22T22:50:41.311Z,8.69
2022-11-22T22:53:07.896Z,8.71
2022-11-22T22:55:34.466Z,8.71
2022-11-22T22:58:02.965Z,8.71
2022-11-22T23:00:29.572Z,8.72
2022-11-22T23:02:56.347Z,8.73
2022-11-22T23:05:23.364Z,8.74
2022-11-22T23:07:50.107Z,8.74
2022-11-22T23:10:16.920Z,8.74
2022-11-22T23:12:43.713Z,8.73
2022-11-22T23:15:11.855Z,8.74
2022-11-22T23:17:38.446Z,8.72
2022-11-22T23:20:06.049Z,8.71
2022-11-22T23:22:32.694Z,8.72
2022-11-22T23:24:59.243Z,8.71
2022-11-22T23:27:25.816Z,8.71
2022-11-22T23:29:52.382Z,8.71
2022-11-22T23:32:20.425Z,8.71
2022-11-22T23:34:47.105Z,8.71
2022-11-22T23:37:13.673Z,8.71
2022-11-22T23:39:40.281Z,8.74
2022-11-22T23:42:06.903Z,8.75
2022-11-22T23:44:33.592Z,8.77
2022-11-22T23:47:00.253Z,8.76
2022-11-22T23:49:28.174Z,8.78
2022-11-22T23:51:54.706Z,8.78
2022-11-22T23:54:21.332Z,8.80
2022-11-22T23:56:47.880Z,8.78
2022-11-22T23:59:14.443Z,8.80
